KCCY/CCY METAR and TAF weather

Enter ICAO airport designator
Station Type Date Time Source
KCCY METAR 2020/10/20 17:55 UTC NOAA

KCCY 201755Z AUTO 11011KT 10SM FEW025 OVC045 05/M02 A3012 RMK AO2


Station Type Date Time Source
KCCY Decoded METAR 2020/10/20 17:55 UTC NOAA

Charles City, IA, United States (KCCY) 43-04N 092-37W
Oct 20, 2020 - 01:55 PM EDT / 2020.10.20 1755 UTC
Wind: from the ESE (110 degrees) at 13 MPH (11 KT):0
Visibility: 10 mile(s):0
Sky conditions: overcast
Temperature: 41 F (5 C)
Dew Point: 28 F (-2 C)
Relative Humidity: 60%
Pressure (altimeter): 30.12 in. Hg (1019 hPa)
ob: KCCY 201755Z AUTO 11011KT 10SM FEW025 OVC045 05/M02 A3012 RMK AO2
cycle: 18

Station Type Date Time Source
KCCY TAF UTC NOAA

Error!

Example: see airport list